createdAt,value
2018-01-16T00:01:38.169Z,19.19
2018-01-16T00:06:38.077Z,19.23
2018-01-16T00:11:37.981Z,19.1
2018-01-16T00:16:37.975Z,18.99
2018-01-16T00:21:37.907Z,18.96
2018-01-16T00:26:37.789Z,18.91
2018-01-16T00:31:37.712Z,18.87
2018-01-16T00:36:37.746Z,18.86
2018-01-16T00:41:37.581Z,18.81
2018-01-16T00:46:37.513Z,18.81
2018-01-16T00:51:37.541Z,18.66
2018-01-16T00:56:37.408Z,18.56
2018-01-16T01:01:37.310Z,18.59
2018-01-16T01:06:37.222Z,18.51
2018-01-16T01:11:37.196Z,18.44
2018-01-16T01:16:37.082Z,18.42
2018-01-16T01:21:37.006Z,18.39
2018-01-16T01:26:36.970Z,18.36
2018-01-16T01:31:36.912Z,18.24
2018-01-16T01:36:36.818Z,18.36
2018-01-16T01:41:36.754Z,18.23
2018-01-16T01:46:36.662Z,18.21
2018-01-16T01:51:36.630Z,18.23
2018-01-16T01:56:36.514Z,18.27
2018-01-16T02:01:36.572Z,18.21
2018-01-16T02:06:36.360Z,18.24
2018-01-16T02:11:36.293Z,18.14
2018-01-16T02:16:36.273Z,18.1
2018-01-16T02:21:36.150Z,18.1
2018-01-16T02:26:36.093Z,18.13
2018-01-16T02:31:36.076Z,18.08
2018-01-16T02:36:35.929Z,18.02
2018-01-16T02:41:35.844Z,18.02
2018-01-16T02:46:35.788Z,17.92
2018-01-16T02:51:35.695Z,17.95
2018-01-16T02:56:35.609Z,17.98
2018-01-16T03:01:35.626Z,17.84
2018-01-16T03:06:35.504Z,17.95
2018-01-16T03:11:35.392Z,17.83
2018-01-16T03:16:35.283Z,17.8
2018-01-16T03:21:35.221Z,17.79
2018-01-16T03:26:35.161Z,17.76
2018-01-16T03:31:35.058Z,17.81
2018-01-16T03:36:35.003Z,17.8
2018-01-16T03:41:34.909Z,17.65
2018-01-16T03:46:34.609Z,17.66
2018-01-16T03:51:34.759Z,17.71
2018-01-16T03:56:34.677Z,17.66
2018-01-16T04:01:34.599Z,17.68
2018-01-16T04:06:34.496Z,17.58
2018-01-16T04:11:34.420Z,17.66
2018-01-16T04:16:34.424Z,17.63
2018-01-16T04:21:34.287Z,17.65
2018-01-16T04:26:34.265Z,17.63
2018-01-16T04:31:34.107Z,17.54
2018-01-16T04:36:34.021Z,17.49
2018-01-16T04:41:33.972Z,17.5
2018-01-16T04:46:33.889Z,17.49
2018-01-16T04:51:33.810Z,17.52
2018-01-16T04:56:33.686Z,17.52
2018-01-16T05:01:33.623Z,17.49
2018-01-16T05:06:33.536Z,17.45
2018-01-16T05:11:33.481Z,17.58
2018-01-16T05:16:33.381Z,17.58
2018-01-16T05:21:33.300Z,17.68
2018-01-16T05:26:33.253Z,17.79
2018-01-16T05:31:33.166Z,17.81
2018-01-16T05:36:33.063Z,17.88
2018-01-16T05:41:32.994Z,17.9
2018-01-16T05:46:33.040Z,18.03
2018-01-16T05:51:32.856Z,18.23
2018-01-16T05:56:32.777Z,18.31
2018-01-16T06:01:32.818Z,18.44
2018-01-16T06:06:32.632Z,18.49
2018-01-16T06:11:32.548Z,18.74
2018-01-16T06:16:32.539Z,18.78
2018-01-16T06:21:32.406Z,18.82
2018-01-16T06:26:32.334Z,18.82
2018-01-16T06:31:32.285Z,18.84
2018-01-16T06:36:32.200Z,18.89
2018-01-16T06:41:32.156Z,18.79
2018-01-16T06:46:32.106Z,18.84
2018-01-16T06:51:32.004Z,18.84
2018-01-16T06:56:31.942Z,18.79
2018-01-16T07:01:31.856Z,18.94
2018-01-16T07:06:31.809Z,19.09
2018-01-16T07:11:31.707Z,19.2
2018-01-16T07:16:31.647Z,19.13
2018-01-16T07:21:31.569Z,18.96
2018-01-16T07:26:31.493Z,18.89
2018-01-16T07:31:31.476Z,18.84
2018-01-16T07:36:31.365Z,18.72
2018-01-16T07:41:31.287Z,18.74
2018-01-16T07:46:31.225Z,18.68
2018-01-16T07:51:31.138Z,18.89
2018-01-16T07:56:31.075Z,18.81
2018-01-16T08:01:31.054Z,18.78
2018-01-16T08:06:30.930Z,18.79
2018-01-16T08:11:30.865Z,18.84
2018-01-16T08:16:30.777Z,18.79
2018-01-16T08:21:30.725Z,18.74
2018-01-16T08:26:30.701Z,18.71
2018-01-16T08:31:30.593Z,18.84
2018-01-16T08:36:30.505Z,18.87
2018-01-16T08:41:30.419Z,18.75
2018-01-16T08:46:30.413Z,18.82
2018-01-16T08:51:30.293Z,18.84
2018-01-16T08:56:30.203Z,18.89
2018-01-16T09:01:30.150Z,18.82
2018-01-16T09:06:29.830Z,18.9
2018-01-16T09:11:30.000Z,18.89
2018-01-16T09:16:29.929Z,18.61
2018-01-16T09:21:29.868Z,18.54
2018-01-16T09:26:29.778Z,18.54
2018-01-16T09:31:29.716Z,18.56
2018-01-16T09:36:29.689Z,18.71
2018-01-16T09:41:29.645Z,18.72
2018-01-16T09:46:29.496Z,18.61
2018-01-16T09:51:29.423Z,18.59
2018-01-16T09:56:29.352Z,18.53
2018-01-16T10:01:29.282Z,18.53
2018-01-16T10:06:29.278Z,18.66
2018-01-16T10:11:29.152Z,18.66
2018-01-16T10:16:29.064Z,18.74
2018-01-16T10:21:28.988Z,18.65
2018-01-16T10:26:28.916Z,18.65
2018-01-16T10:31:28.871Z,18.68
2018-01-16T10:36:28.856Z,18.69
2018-01-16T10:41:28.802Z,18.69
2018-01-16T10:46:28.634Z,18.78
2018-01-16T10:51:28.558Z,18.93
2018-01-16T10:56:28.532Z,19.05
2018-01-16T11:01:28.486Z,19.02
2018-01-16T11:06:28.346Z,18.97
2018-01-16T11:11:28.278Z,18.91
2018-01-16T11:16:28.210Z,18.99
2018-01-16T11:21:28.192Z,19.02
2018-01-16T11:26:28.058Z,19.09
2018-01-16T11:31:27.986Z,19.24
2018-01-16T11:36:27.963Z,19.25
2018-01-16T11:41:27.841Z,19.19
2018-01-16T11:46:27.788Z,18.97
2018-01-16T11:51:27.698Z,19
2018-01-16T11:56:27.632Z,18.93
2018-01-16T12:01:27.560Z,19.02
2018-01-16T12:06:27.551Z,19.15
2018-01-16T12:11:27.429Z,20.29
2018-01-16T12:16:27.361Z,21.22
2018-01-16T12:21:27.353Z,19.64
2018-01-16T12:26:27.206Z,20.12
2018-01-16T12:31:27.138Z,19.27
2018-01-16T12:36:27.142Z,19.12
2018-01-16T12:41:27.033Z,19.25
2018-01-16T12:46:26.943Z,18.97
2018-01-16T12:51:26.977Z,19.02
2018-01-16T12:56:26.791Z,19.12
2018-01-16T13:01:26.717Z,19.17
2018-01-16T13:06:26.733Z,19.25
2018-01-16T13:11:26.583Z,19.07
2018-01-16T13:16:26.525Z,18.97
2018-01-16T13:21:26.450Z,18.81
2018-01-16T13:26:26.398Z,18.81
2018-01-16T13:31:26.302Z,18.81
2018-01-16T13:36:26.239Z,18.87
2018-01-16T13:41:26.148Z,18.82
2018-01-16T13:46:25.833Z,18.89
2018-01-16T13:51:26.029Z,18.81
2018-01-16T13:56:25.943Z,18.72
2018-01-16T14:01:25.874Z,18.78
2018-01-16T14:06:25.817Z,18.63
2018-01-16T14:11:25.736Z,18.76
2018-01-16T14:16:25.666Z,18.72
2018-01-16T14:21:25.590Z,18.72
2018-01-16T14:26:25.603Z,18.74
2018-01-16T14:31:25.522Z,18.72
2018-01-16T14:36:25.392Z,18.72
2018-01-16T14:41:25.056Z,18.63
2018-01-16T14:46:25.281Z,18.57
2018-01-16T14:51:25.213Z,18.87
2018-01-16T14:56:25.205Z,19
2018-01-16T15:01:25.090Z,18.96
2018-01-16T15:06:24.963Z,18.94
2018-01-16T15:11:24.870Z,19
2018-01-16T15:16:24.818Z,19
2018-01-16T15:21:24.767Z,19.02
2018-01-16T15:26:24.697Z,18.96
2018-01-16T15:31:24.582Z,18.94
2018-01-16T15:36:24.587Z,18.87
2018-01-16T15:41:24.463Z,18.99
2018-01-16T15:46:24.389Z,18.89
2018-01-16T15:51:24.332Z,19.02
2018-01-16T15:56:24.252Z,19.05
2018-01-16T16:01:24.171Z,18.99
2018-01-16T16:06:23.847Z,19
2018-01-16T16:11:24.057Z,19.06
2018-01-16T16:16:23.967Z,19.07
2018-01-16T16:21:23.891Z,19.07
2018-01-16T16:26:23.824Z,19.16
2018-01-16T16:31:23.758Z,19.05
2018-01-16T16:36:23.692Z,19.24
2018-01-16T16:41:23.641Z,19.2
2018-01-16T16:46:23.548Z,19.16
2018-01-16T16:51:23.487Z,18.9
